createdAt,value
2018-01-10T00:01:18.111Z,92.70
2018-01-10T00:03:45.626Z,92.70
2018-01-10T00:06:13.182Z,92.70
2018-01-10T00:08:40.730Z,92.60
2018-01-10T00:11:08.254Z,92.80
2018-01-10T00:13:35.790Z,92.70
2018-01-10T00:16:04.111Z,92.80
2018-01-10T00:18:31.642Z,92.70
2018-01-10T00:20:59.987Z,92.90
2018-01-10T00:23:27.561Z,92.90
2018-01-10T00:25:55.128Z,92.90
2018-01-10T00:28:23.424Z,92.90
2018-01-10T00:30:50.971Z,92.80
2018-01-10T00:33:18.632Z,92.90
2018-01-10T00:35:46.157Z,92.90
2018-01-10T00:38:13.706Z,92.80
2018-01-10T00:40:41.985Z,93.00
2018-01-10T00:43:10.293Z,92.90
2018-01-10T00:45:37.835Z,92.90
2018-01-10T00:48:06.133Z,92.90
2018-01-10T00:50:33.655Z,92.90
2018-01-10T00:53:01.215Z,92.80
2018-01-10T00:55:28.740Z,92.80
2018-01-10T00:57:56.263Z,92.90
2018-01-10T01:00:24.572Z,92.80
2018-01-10T01:02:52.105Z,92.80
2018-01-10T01:05:19.638Z,92.80
2018-01-10T01:07:47.201Z,92.80
2018-01-10T01:10:14.712Z,92.80
2018-01-10T01:12:43.023Z,92.90
2018-01-10T01:15:10.605Z,92.90
2018-01-10T01:17:38.135Z,92.90
2018-01-10T01:20:05.672Z,92.90
2018-01-10T01:22:33.210Z,92.90
2018-01-10T01:25:00.732Z,92.90
2018-01-10T01:27:29.016Z,92.80
2018-01-10T01:29:56.598Z,92.80
2018-01-10T01:32:24.113Z,92.80
2018-01-10T01:34:51.632Z,92.90
2018-01-10T01:37:19.167Z,92.90
2018-01-10T01:39:47.447Z,92.80
2018-01-10T01:42:15.822Z,92.90
2018-01-10T01:44:44.125Z,93.00
2018-01-10T01:47:11.658Z,92.90
2018-01-10T01:49:39.182Z,92.90
2018-01-10T01:52:06.771Z,92.90
2018-01-10T01:54:34.309Z,92.90
2018-01-10T01:57:01.846Z,92.90
2018-01-10T01:59:29.401Z,92.90
2018-01-10T02:01:57.720Z,92.90
2018-01-10T02:04:25.244Z,92.90
2018-01-10T02:06:53.568Z,93.00
2018-01-10T02:09:21.093Z,93.00
2018-01-10T02:11:49.384Z,93.00
2018-01-10T02:14:16.953Z,93.00
2018-01-10T02:16:44.475Z,93.00
2018-01-10T02:19:11.976Z,93.00
2018-01-10T02:21:39.527Z,92.90
2018-01-10T02:24:07.802Z,93.00
2018-01-10T02:26:36.105Z,92.70
2018-01-10T02:29:04.439Z,92.70
2018-01-10T02:31:31.975Z,92.70
2018-01-10T02:33:59.504Z,92.70
2018-01-10T02:36:27.799Z,92.80
2018-01-10T02:38:55.330Z,92.70
2018-01-10T02:41:22.896Z,92.80
2018-01-10T02:43:50.442Z,92.50
2018-01-10T02:46:17.975Z,92.20
2018-01-10T02:48:45.536Z,92.30
2018-01-10T02:51:13.093Z,92.20
2018-01-10T02:53:40.613Z,92.30
2018-01-10T02:56:08.152Z,92.40
2018-01-10T02:58:35.724Z,92.20
2018-01-10T03:01:03.253Z,92.40
2018-01-10T03:03:31.544Z,92.60
2018-01-10T03:05:59.084Z,92.60
2018-01-10T03:08:27.401Z,92.60
2018-01-10T03:10:54.924Z,92.60
2018-01-10T03:13:22.464Z,92.60
2018-01-10T03:15:49.990Z,92.70
2018-01-10T03:18:17.517Z,92.60
2018-01-10T03:20:45.228Z,92.50
2018-01-10T03:23:12.749Z,92.60
2018-01-10T03:25:40.275Z,92.80
2018-01-10T03:28:07.878Z,92.60
2018-01-10T03:30:35.411Z,92.60
2018-01-10T03:33:03.082Z,92.70
2018-01-10T03:35:30.698Z,92.80
2018-01-10T03:37:59.097Z,92.90
2018-01-10T03:40:26.615Z,92.90
2018-01-10T03:42:54.172Z,92.70
2018-01-10T03:45:21.772Z,92.70
2018-01-10T03:47:50.063Z,92.70
2018-01-10T03:50:18.378Z,92.80
2018-01-10T03:52:45.903Z,92.80
2018-01-10T03:55:14.179Z,92.90
2018-01-10T03:57:42.493Z,92.90
2018-01-10T04:00:10.018Z,92.90
2018-01-10T04:02:37.513Z,93.00
2018-01-10T04:05:05.070Z,93.00
2018-01-10T04:07:32.606Z,92.80
2018-01-10T04:10:00.135Z,92.70
2018-01-10T04:12:27.692Z,92.70
2018-01-10T04:14:55.229Z,92.90
2018-01-10T04:17:23.531Z,93.10
2018-01-10T04:19:51.071Z,93.10
2018-01-10T04:22:19.433Z,93.20
2018-01-10T04:24:46.952Z,93.20
2018-01-10T04:27:14.484Z,93.00
2018-01-10T04:29:42.769Z,93.00
2018-01-10T04:32:11.056Z,92.80
2018-01-10T04:34:38.608Z,92.80
2018-01-10T04:37:06.905Z,93.00
2018-01-10T04:39:34.430Z,93.00
2018-01-10T04:42:01.980Z,93.10
2018-01-10T04:44:29.554Z,93.20
2018-01-10T04:46:57.182Z,93.40
2018-01-10T04:49:24.724Z,93.60
2018-01-10T04:51:53.007Z,93.90
2018-01-10T04:54:21.295Z,93.90
2018-01-10T04:56:48.832Z,93.90
2018-01-10T04:59:16.367Z,93.90
2018-01-10T05:01:43.909Z,93.90
2018-01-10T05:04:11.744Z,93.90
2018-01-10T05:06:40.040Z,94.10
2018-01-10T05:09:08.397Z,94.10
2018-01-10T05:11:35.944Z,94.10
2018-01-10T05:14:03.469Z,94.10
2018-01-10T05:16:31.009Z,94.00
2018-01-10T05:18:59.335Z,93.90
2018-01-10T05:21:26.851Z,93.90
2018-01-10T05:23:55.164Z,93.80
2018-01-10T05:26:22.716Z,93.80
2018-01-10T05:28:50.331Z,93.80
2018-01-10T05:31:17.866Z,93.80
2018-01-10T05:33:45.399Z,93.90
2018-01-10T05:36:13.687Z,93.80
2018-01-10T05:38:41.981Z,94.00
2018-01-10T05:41:10.286Z,94.10
2018-01-10T05:43:37.949Z,94.10
2018-01-10T05:46:05.479Z,94.10
2018-01-10T05:48:33.797Z,94.10
2018-01-10T05:51:01.330Z,94.10
2018-01-10T05:53:29.630Z,93.90
2018-01-10T05:55:57.184Z,93.90
2018-01-10T05:58:24.707Z,93.80
2018-01-10T06:00:52.231Z,93.80
2018-01-10T06:03:19.771Z,93.70
2018-01-10T06:05:48.213Z,93.60
2018-01-10T06:08:15.732Z,93.60
2018-01-10T06:10:43.272Z,93.60
2018-01-10T06:13:10.797Z,93.60
2018-01-10T06:15:38.320Z,93.50
2018-01-10T06:18:05.864Z,93.60
2018-01-10T06:20:33.395Z,93.50
2018-01-10T06:23:00.921Z,93.50
2018-01-10T06:25:28.496Z,93.50
2018-01-10T06:27:56.012Z,93.50
2018-01-10T06:30:23.537Z,93.50
2018-01-10T06:32:51.152Z,93.50
2018-01-10T06:35:19.499Z,93.40
2018-01-10T06:37:47.143Z,93.40
2018-01-10T06:40:14.676Z,93.40
2018-01-10T06:42:43.103Z,93.30
2018-01-10T06:45:10.621Z,93.20
2018-01-10T06:47:38.924Z,93.10
2018-01-10T06:50:06.506Z,93.30
2018-01-10T06:52:34.025Z,93.30
2018-01-10T06:55:01.560Z,93.30
2018-01-10T06:57:29.079Z,93.30
2018-01-10T06:59:57.387Z,93.20
2018-01-10T07:02:24.946Z,93.20
2018-01-10T07:04:52.454Z,93.20
2018-01-10T07:07:19.973Z,93.30
2018-01-10T07:09:47.842Z,93.30
2018-01-10T07:12:15.370Z,93.30
2018-01-10T07:14:42.889Z,93.30
2018-01-10T07:17:10.428Z,93.30
2018-01-10T07:19:37.950Z,93.30
2018-01-10T07:22:05.480Z,93.30
2018-01-10T07:24:33.008Z,93.30
2018-01-10T07:27:01.298Z,93.40
2018-01-10T07:29:29.745Z,93.40
2018-01-10T07:31:57.281Z,93.40
2018-01-10T07:34:24.805Z,93.40
2018-01-10T07:36:53.100Z,93.40
2018-01-10T07:39:21.393Z,93.40
2018-01-10T07:41:48.930Z,93.40
2018-01-10T07:44:17.225Z,93.40
2018-01-10T07:46:45.543Z,93.40
2018-01-10T07:49:13.048Z,93.40
2018-01-10T07:51:40.597Z,93.30
2018-01-10T07:54:08.157Z,93.40
2018-01-10T07:56:35.702Z,93.40
2018-01-10T07:59:03.223Z,93.40
2018-01-10T08:01:31.524Z,93.40
2018-01-10T08:03:59.111Z,93.40
2018-01-10T08:06:27.353Z,93.70
2018-01-10T08:08:55.660Z,93.30
2018-01-10T08:11:23.180Z,93.30
2018-01-10T08:13:50.703Z,93.30
2018-01-10T08:16:18.356Z,93.30
2018-01-10T08:18:45.870Z,93.20
2018-01-10T08:21:13.457Z,93.00
2018-01-10T08:23:41.778Z,93.10
2018-01-10T08:26:09.316Z,93.00
2018-01-10T08:28:37.599Z,92.70
2018-01-10T08:31:05.161Z,92.70
2018-01-10T08:33:33.452Z,92.60
2018-01-10T08:36:00.976Z,92.50
2018-01-10T08:38:28.532Z,92.50
2018-01-10T08:40:56.056Z,92.40
2018-01-10T08:43:23.564Z,92.30
2018-01-10T08:45:51.113Z,91.90
2018-01-10T08:48:18.646Z,91.80
2018-01-10T08:50:46.177Z,91.80
2018-01-10T08:53:13.865Z,91.80
2018-01-10T08:55:42.148Z,91.80
2018-01-10T08:58:09.689Z,91.80
2018-01-10T09:00:38.014Z,91.70
2018-01-10T09:03:05.536Z,91.60
2018-01-10T09:05:33.867Z,91.50
2018-01-10T09:08:01.402Z,91.50
2018-01-10T09:10:29.742Z,91.40
2018-01-10T09:12:57.252Z,91.30
2018-01-10T09:15:25.761Z,91.10
2018-01-10T09:17:53.500Z,91.10
2018-01-10T09:20:21.815Z,91.00
2018-01-10T09:22:49.351Z,90.90
2018-01-10T09:25:17.661Z,90.60
2018-01-10T09:27:45.181Z,90.60
2018-01-10T09:30:13.757Z,90.40
2018-01-10T09:32:41.276Z,90.40
2018-01-10T09:35:08.810Z,90.30
2018-01-10T09:37:37.133Z,90.10
2018-01-10T09:40:04.706Z,90.10
2018-01-10T09:42:32.963Z,90.20
2018-01-10T09:45:00.527Z,90.20
2018-01-10T09:47:28.049Z,90.30
2018-01-10T09:49:57.096Z,90.20
2018-01-10T09:52:24.609Z,90.20
2018-01-10T09:54:53.613Z,90.20
2018-01-10T09:57:21.912Z,90.00
2018-01-10T09:59:50.331Z,90.50
2018-01-10T10:02:17.976Z,90.50
2018-01-10T10:04:45.510Z,90.50
2018-01-10T10:07:13.835Z,90.60
2018-01-10T10:09:41.361Z,90.50
2018-01-10T10:12:08.882Z,90.40
2018-01-10T10:14:36.417Z,90.00
2018-01-10T10:17:04.729Z,88.80
2018-01-10T10:19:32.265Z,88.70
2018-01-10T10:22:00.569Z,88.50
2018-01-10T10:24:28.134Z,88.50
2018-01-10T10:26:55.652Z,87.90
2018-01-10T10:29:23.403Z,87.00
2018-01-10T10:31:51.004Z,86.90
2018-01-10T10:34:19.292Z,86.00
2018-01-10T10:36:46.899Z,86.00
2018-01-10T10:39:14.422Z,85.10
2018-01-10T10:41:42.244Z,85.20
2018-01-10T10:44:09.780Z,85.90
2018-01-10T10:46:37.315Z,85.30
2018-01-10T10:49:05.688Z,84.70
2018-01-10T10:51:33.247Z,84.70
2018-01-10T10:54:00.758Z,84.40
2018-01-10T10:56:28.288Z,83.40
2018-01-10T10:58:55.833Z,83.40
2018-01-10T11:01:23.364Z,83.70
2018-01-10T11:03:50.879Z,84.30
2018-01-10T11:06:18.423Z,83.60
2018-01-10T11:08:45.949Z,84.40
2018-01-10T11:11:13.514Z,84.00
2018-01-10T11:13:41.049Z,83.30
2018-01-10T11:16:09.438Z,83.30
2018-01-10T11:18:37.734Z,83.20
2018-01-10T11:21:05.295Z,83.20
2018-01-10T11:23:32.825Z,82.90
2018-01-10T11:26:00.340Z,83.10
2018-01-10T11:28:27.944Z,82.70
2018-01-10T11:30:56.365Z,83.60
2018-01-10T11:33:24.652Z,83.10
2018-01-10T11:35:52.969Z,82.50
2018-01-10T11:38:20.486Z,82.40
2018-01-10T11:40:48.778Z,83.00
2018-01-10T11:43:17.084Z,83.20
2018-01-10T11:45:44.609Z,83.00
2018-01-10T11:48:12.131Z,83.40
2018-01-10T11:50:39.679Z,82.90
2018-01-10T11:53:07.210Z,82.80
2018-01-10T11:55:34.810Z,82.70
2018-01-10T11:58:02.335Z,82.40
2018-01-10T12:00:30.620Z,81.70
2018-01-10T12:02:58.904Z,81.90
2018-01-10T12:05:27.237Z,80.50
2018-01-10T12:07:54.764Z,80.30
2018-01-10T12:10:23.272Z,80.40
2018-01-10T12:12:50.805Z,80.40
2018-01-10T12:15:19.101Z,80.30
2018-01-10T12:17:47.396Z,81.00
2018-01-10T12:20:14.925Z,81.00
2018-01-10T12:22:42.449Z,80.10
2018-01-10T12:25:09.964Z,81.80
2018-01-10T12:27:38.282Z,81.50
2018-01-10T12:30:05.821Z,81.30
2018-01-10T12:32:34.096Z,80.10
2018-01-10T12:35:02.419Z,79.30
2018-01-10T12:37:30.025Z,79.30
2018-01-10T12:39:57.654Z,79.70
2018-01-10T12:42:25.218Z,80.00
2018-01-10T12:44:52.745Z,79.80
2018-01-10T12:47:21.040Z,78.60
2018-01-10T12:49:48.583Z,78.60
2018-01-10T12:52:16.881Z,78.60
2018-01-10T12:54:45.154Z,79.00
2018-01-10T12:57:13.471Z,78.40
2018-01-10T12:59:41.002Z,78.40
2018-01-10T13:02:09.296Z,77.80
2018-01-10T13:04:36.929Z,77.80
2018-01-10T13:07:05.231Z,78.00
2018-01-10T13:09:33.525Z,77.50
2018-01-10T13:12:01.070Z,77.50
2018-01-10T13:14:29.369Z,78.80
2018-01-10T13:16:57.839Z,78.50
2018-01-10T13:19:26.161Z,79.20
2018-01-10T13:21:53.721Z,78.50
2018-01-10T13:24:21.241Z,78.30
2018-01-10T13:26:48.787Z,78.80
2018-01-10T13:29:16.356Z,78.90
2018-01-10T13:31:43.842Z,79.20
2018-01-10T13:34:12.172Z,79.50
2018-01-10T13:36:39.710Z,79.50
2018-01-10T13:39:07.294Z,80.20
2018-01-10T13:41:34.871Z,80.50
2018-01-10T13:44:02.530Z,81.60
2018-01-10T13:46:30.078Z,82.70
2018-01-10T13:48:57.642Z,83.60
2018-01-10T13:51:25.189Z,83.00
2018-01-10T13:53:52.716Z,83.30
2018-01-10T13:56:20.276Z,83.80
2018-01-10T13:58:47.801Z,84.60
2018-01-10T14:01:15.332Z,84.40
2018-01-10T14:03:43.131Z,84.10
2018-01-10T14:06:10.685Z,85.00
2018-01-10T14:08:39.001Z,84.80
2018-01-10T14:11:06.559Z,84.70
2018-01-10T14:13:34.089Z,85.30
2018-01-10T14:16:01.608Z,85.20
2018-01-10T14:18:29.244Z,84.60
2018-01-10T14:20:56.781Z,85.10
2018-01-10T14:23:25.079Z,84.60
2018-01-10T14:25:53.413Z,84.70
2018-01-10T14:28:20.948Z,84.60
2018-01-10T14:30:48.472Z,85.40
2018-01-10T14:33:16.821Z,84.70
2018-01-10T14:35:44.346Z,84.70
2018-01-10T14:38:12.664Z,85.60
2018-01-10T14:40:40.228Z,85.40
2018-01-10T14:43:07.760Z,85.70
2018-01-10T14:45:36.062Z,85.60
2018-01-10T14:48:03.750Z,85.70
2018-01-10T14:50:31.281Z,85.70
2018-01-10T14:52:58.827Z,85.60
2018-01-10T14:55:26.410Z,85.60
2018-01-10T14:57:54.719Z,85.60
2018-01-10T15:00:22.251Z,85.60
2018-01-10T15:02:50.556Z,85.90
2018-01-10T15:05:18.089Z,85.90
2018-01-10T15:07:46.406Z,85.60
2018-01-10T15:10:13.970Z,85.50
2018-01-10T15:12:41.494Z,85.60
2018-01-10T15:15:09.104Z,86.20
2018-01-10T15:17:36.641Z,86.80
2018-01-10T15:20:04.950Z,87.00
2018-01-10T15:22:32.515Z,87.20
2018-01-10T15:25:00.085Z,87.70
2018-01-10T15:27:27.601Z,88.10
2018-01-10T15:29:55.913Z,88.40
2018-01-10T15:32:23.467Z,88.60
2018-01-10T15:34:51.764Z,88.70
2018-01-10T15:37:19.323Z,88.50
2018-01-10T15:39:46.888Z,88.90
2018-01-10T15:42:15.236Z,89.00
2018-01-10T15:44:44.279Z,88.80
2018-01-10T15:47:11.831Z,88.80
2018-01-10T15:49:39.358Z,89.10
2018-01-10T15:52:06.910Z,89.20
2018-01-10T15:54:34.524Z,89.20
2018-01-10T15:57:03.008Z,88.80
2018-01-10T15:59:31.320Z,89.00
2018-01-10T16:01:58.876Z,88.90
2018-01-10T16:04:26.612Z,89.00
2018-01-10T16:06:54.904Z,89.10
2018-01-10T16:09:23.219Z,88.90
2018-01-10T16:11:50.768Z,88.90
2018-01-10T16:14:18.301Z,88.80
2018-01-10T16:16:45.861Z,88.80
2018-01-10T16:19:13.389Z,88.90
2018-01-10T16:21:40.920Z,88.90
2018-01-10T16:24:08.481Z,88.90
2018-01-10T16:26:36.784Z,88.80
2018-01-10T16:29:04.308Z,88.80
2018-01-10T16:31:31.919Z,88.70
2018-01-10T16:33:59.446Z,88.40
2018-01-10T16:36:27.765Z,88.30
2018-01-10T16:38:55.394Z,88.20
2018-01-10T16:41:23.692Z,88.50
2018-01-10T16:43:51.237Z,88.40
2018-01-10T16:46:18.797Z,88.40
2018-01-10T16:48:46.338Z,88.30
2018-01-10T16:51:13.864Z,88.60
2018-01-10T16:53:41.418Z,88.50
2018-01-10T16:56:09.722Z,88.70
2018-01-10T16:58:37.251Z,88.50
2018-01-10T17:01:05.586Z,88.50
2018-01-10T17:03:33.136Z,88.40
2018-01-10T17:06:00.684Z,88.70
2018-01-10T17:08:28.997Z,88.20
2018-01-10T17:10:56.542Z,88.20
2018-01-10T17:13:24.073Z,87.50
2018-01-10T17:15:51.647Z,87.20
2018-01-10T17:18:19.932Z,87.50
2018-01-10T17:20:48.247Z,87.40
2018-01-10T17:23:15.828Z,87.30
2018-01-10T17:25:43.366Z,87.20
2018-01-10T17:28:10.899Z,87.20
2018-01-10T17:30:39.208Z,87.50
2018-01-10T17:33:06.786Z,87.50
2018-01-10T17:35:34.319Z,87.30
2018-01-10T17:38:02.633Z,87.80
2018-01-10T17:40:30.174Z,87.70
2018-01-10T17:42:58.489Z,87.80
2018-01-10T17:45:26.037Z,87.80
2018-01-10T17:47:53.570Z,88.00
2018-01-10T17:50:21.905Z,87.90
2018-01-10T17:52:49.436Z,87.80
2018-01-10T17:55:18.530Z,87.80
2018-01-10T17:57:46.881Z,88.00
2018-01-10T18:00:14.446Z,87.90
2018-01-10T18:02:42.002Z,87.90
2018-01-10T18:05:09.534Z,87.90
2018-01-10T18:07:37.082Z,88.00
2018-01-10T18:10:05.409Z,88.30
2018-01-10T18:12:32.961Z,88.30
2018-01-10T18:15:00.496Z,88.30
2018-01-10T18:17:28.080Z,88.60
2018-01-10T18:19:55.617Z,88.60
2018-01-10T18:22:23.990Z,88.90
2018-01-10T18:24:52.316Z,89.20
2018-01-10T18:27:19.877Z,89.20
2018-01-10T18:29:47.425Z,89.40
2018-01-10T18:32:14.993Z,89.50
2018-01-10T18:34:42.523Z,89.70
2018-01-10T18:37:10.091Z,90.00
2018-01-10T18:39:37.620Z,90.50
2018-01-10T18:42:05.181Z,90.60
2018-01-10T18:44:32.715Z,90.80
2018-01-10T18:47:01.134Z,91.20
2018-01-10T18:49:28.726Z,91.10
2018-01-10T18:51:56.302Z,91.20
2018-01-10T18:54:23.838Z,91.10
2018-01-10T18:56:51.523Z,91.20
2018-01-10T18:59:19.150Z,91.20
2018-01-10T19:01:46.688Z,91.30
2018-01-10T19:04:14.981Z,91.30
2018-01-10T19:06:43.293Z,91.20
2018-01-10T19:09:10.814Z,91.20
2018-01-10T19:11:39.165Z,91.20
2018-01-10T19:14:06.687Z,91.20
2018-01-10T19:16:34.247Z,91.20
2018-01-10T19:19:01.818Z,91.30
2018-01-10T19:21:29.381Z,91.30
2018-01-10T19:23:56.954Z,91.30
2018-01-10T19:26:24.502Z,91.30
2018-01-10T19:28:52.058Z,91.80
2018-01-10T19:31:20.386Z,91.60
2018-01-10T19:33:47.999Z,91.50
2018-01-10T19:36:16.377Z,91.60
2018-01-10T19:38:43.933Z,91.60
2018-01-10T19:41:11.540Z,91.60
2018-01-10T19:43:39.074Z,91.70
2018-01-10T19:46:07.430Z,91.70
2018-01-10T19:48:35.064Z,91.70
2018-01-10T19:51:02.626Z,91.70
2018-01-10T19:53:30.232Z,91.70
2018-01-10T19:55:57.768Z,91.70
2018-01-10T19:58:25.319Z,91.80
2018-01-10T20:00:52.854Z,91.80
2018-01-10T20:03:21.190Z,91.70
2018-01-10T20:05:48.751Z,91.90
2018-01-10T20:08:16.330Z,91.90
2018-01-10T20:10:44.756Z,92.00
2018-01-10T20:13:13.082Z,92.00
2018-01-10T20:15:40.699Z,91.90
2018-01-10T20:18:08.229Z,91.80
2018-01-10T20:20:35.814Z,91.80
2018-01-10T20:23:03.593Z,91.70
2018-01-10T20:25:31.141Z,91.60
2018-01-10T20:27:58.691Z,91.60
2018-01-10T20:30:26.231Z,91.60
2018-01-10T20:32:53.795Z,91.50
2018-01-10T20:35:21.345Z,91.50
2018-01-10T20:37:49.117Z,91.50
2018-01-10T20:40:16.675Z,91.50
2018-01-10T20:42:45.087Z,91.50
2018-01-10T20:45:12.656Z,91.50
2018-01-10T20:47:40.216Z,91.60
2018-01-10T20:50:07.753Z,91.60
2018-01-10T20:52:36.074Z,91.50
2018-01-10T20:55:03.604Z,91.50
2018-01-10T20:57:31.928Z,91.60
2018-01-10T20:59:59.466Z,91.50
2018-01-10T21:02:27.082Z,91.60
2018-01-10T21:04:54.616Z,91.60
2018-01-10T21:07:22.200Z,91.60
2018-01-10T21:09:49.724Z,91.70
2018-01-10T21:12:17.409Z,91.60
2018-01-10T21:14:44.938Z,91.70
2018-01-10T21:17:13.262Z,91.80
2018-01-10T21:19:40.798Z,91.80
2018-01-10T21:22:08.361Z,91.70
2018-01-10T21:24:36.682Z,91.80
2018-01-10T21:27:04.249Z,91.80
2018-01-10T21:29:31.792Z,91.90
2018-01-10T21:31:59.344Z,91.90
2018-01-10T21:34:26.883Z,92.10
2018-01-10T21:36:55.236Z,92.20
2018-01-10T21:39:22.777Z,92.10
2018-01-10T21:41:50.354Z,92.10
2018-01-10T21:44:17.909Z,92.10
2018-01-10T21:46:45.462Z,92.20
2018-01-10T21:49:13.339Z,92.20
2018-01-10T21:51:40.894Z,92.20
2018-01-10T21:54:09.211Z,92.10
2018-01-10T21:56:36.769Z,92.10
2018-01-10T21:59:04.312Z,92.30
2018-01-10T22:01:31.878Z,92.40
2018-01-10T22:03:59.409Z,92.30
2018-01-10T22:06:27.746Z,92.30
2018-01-10T22:08:55.281Z,92.30
2018-01-10T22:11:22.834Z,92.30
2018-01-10T22:13:51.133Z,92.30
2018-01-10T22:16:18.692Z,92.30
2018-01-10T22:18:47.001Z,92.30
2018-01-10T22:21:14.545Z,92.20
2018-01-10T22:23:42.131Z,92.20
2018-01-10T22:26:09.695Z,92.30
2018-01-10T22:28:37.228Z,92.30
2018-01-10T22:31:05.544Z,92.40
2018-01-10T22:33:33.137Z,92.30
2018-01-10T22:36:00.681Z,92.40
2018-01-10T22:38:28.236Z,92.40
2018-01-10T22:40:55.795Z,92.40
2018-01-10T22:43:23.354Z,92.40
2018-01-10T22:45:50.851Z,92.40
2018-01-10T22:48:18.503Z,92.30
2018-01-10T22:50:46.032Z,92.40
2018-01-10T22:53:14.352Z,92.50
2018-01-10T22:55:41.888Z,92.40
2018-01-10T22:58:10.196Z,92.40
2018-01-10T23:00:37.743Z,92.40
2018-01-10T23:03:05.318Z,92.30
2018-01-10T23:05:32.860Z,92.50
2018-01-10T23:08:01.271Z,92.40
2018-01-10T23:10:28.793Z,92.40
2018-01-10T23:12:57.124Z,92.30
2018-01-10T23:15:24.674Z,92.30
2018-01-10T23:17:52.230Z,92.40
2018-01-10T23:20:20.526Z,92.40
2018-01-10T23:22:48.084Z,92.40
2018-01-10T23:25:16.379Z,92.40
2018-01-10T23:27:43.938Z,92.40
2018-01-10T23:30:11.479Z,92.40
2018-01-10T23:32:39.802Z,92.50
2018-01-10T23:35:07.342Z,92.40
2018-01-10T23:37:34.971Z,92.50
2018-01-10T23:40:04.012Z,92.60
2018-01-10T23:42:31.562Z,92.60
2018-01-10T23:44:59.103Z,92.50
2018-01-10T23:47:26.661Z,92.40
2018-01-10T23:49:54.192Z,92.50
2018-01-10T23:52:21.812Z,92.50
2018-01-10T23:54:50.111Z,92.70
2018-01-10T23:57:17.697Z,92.60
2018-01-10T23:59:45.356Z,92.60
